createdAt,value
2023-01-18T00:00:46.994Z,14.52
2023-01-18T00:03:36.845Z,12.80
2023-01-18T00:06:27.799Z,13.40
2023-01-18T00:09:15.976Z,16.27
2023-01-18T00:12:04.493Z,14.02
2023-01-18T00:14:54.030Z,13.70
2023-01-18T00:17:51.835Z,14.15
2023-01-18T00:20:40.076Z,15.55
2023-01-18T00:23:28.452Z,15.00
2023-01-18T00:26:16.682Z,18.02
2023-01-18T00:29:05.881Z,19.13
2023-01-18T00:31:55.490Z,16.70
2023-01-18T00:34:43.738Z,14.38
2023-01-18T00:37:33.259Z,18.73
2023-01-18T00:40:22.539Z,21.70
2023-01-18T00:43:28.218Z,16.73
2023-01-18T00:46:18.410Z,13.00
2023-01-18T00:49:08.260Z,17.50
2023-01-18T00:51:58.713Z,18.42
2023-01-18T00:54:47.110Z,20.65
2023-01-18T00:57:35.250Z,16.80
2023-01-18T01:00:27.119Z,15.95
2023-01-18T01:03:15.410Z,15.38
2023-01-18T01:06:22.369Z,17.45
2023-01-18T01:09:10.581Z,17.67
2023-01-18T01:12:17.152Z,17.60
2023-01-18T01:15:23.549Z,17.42
2023-01-18T01:18:31.181Z,30.45
2023-01-18T01:21:38.489Z,18.10
2023-01-18T01:24:45.005Z,18.30
2023-01-18T01:27:33.209Z,15.98
2023-01-18T01:30:21.406Z,13.35
2023-01-18T01:33:09.607Z,18.40
2023-01-18T01:35:58.615Z,18.55
2023-01-18T01:38:48.492Z,18.35
2023-01-18T01:41:36.649Z,15.63
2023-01-18T01:44:47.870Z,16.25
2023-01-18T01:47:40.381Z,14.45
2023-01-18T01:50:34.325Z,18.25
2023-01-18T01:53:23.214Z,17.75
2023-01-18T01:56:13.546Z,19.55
2023-01-18T01:59:03.820Z,18.92
2023-01-18T02:01:52.186Z,11.97
2023-01-18T02:04:44.147Z,16.60
2023-01-18T02:07:34.200Z,20.40
2023-01-18T02:10:22.876Z,21.48
2023-01-18T02:13:12.673Z,20.50
2023-01-18T02:16:09.851Z,18.85
2023-01-18T02:19:06.982Z,16.92
2023-01-18T02:21:59.321Z,17.00
2023-01-18T02:25:14.223Z,15.13
2023-01-18T02:28:14.084Z,19.08
2023-01-18T02:31:10.910Z,16.50
2023-01-18T02:34:05.245Z,20.20
2023-01-18T02:37:04.893Z,13.65
2023-01-18T02:40:05.129Z,18.55
2023-01-18T02:43:11.426Z,16.02
2023-01-18T02:46:19.744Z,16.70
2023-01-18T02:49:11.430Z,20.15
2023-01-18T02:52:03.849Z,16.35
2023-01-18T02:54:52.002Z,16.33
2023-01-18T02:57:40.811Z,18.55
2023-01-18T03:00:30.054Z,21.35
2023-01-18T03:03:22.273Z,15.27
2023-01-18T03:06:10.741Z,17.98
2023-01-18T03:09:00.191Z,20.48
2023-01-18T03:11:58.884Z,16.90
2023-01-18T03:14:55.836Z,19.92
2023-01-18T03:17:50.971Z,15.60
2023-01-18T03:20:47.608Z,13.60
2023-01-18T03:23:42.497Z,18.75
2023-01-18T03:26:32.444Z,17.25
2023-01-18T03:29:39.382Z,17.50
2023-01-18T03:32:44.982Z,16.70
2023-01-18T03:35:34.858Z,18.45
2023-01-18T03:38:25.275Z,20.50
2023-01-18T03:41:14.751Z,17.17
2023-01-18T03:44:08.799Z,15.45
2023-01-18T03:46:57.628Z,18.20
2023-01-18T03:49:45.795Z,19.83
2023-01-18T03:52:41.668Z,15.43
2023-01-18T03:55:38.915Z,13.07
2023-01-18T03:58:34.063Z,21.17
2023-01-18T04:01:23.165Z,14.98
2023-01-18T04:04:11.458Z,15.05
2023-01-18T04:06:59.928Z,15.23
2023-01-18T04:09:48.138Z,14.27
2023-01-18T04:12:38.017Z,18.02
2023-01-18T04:15:26.231Z,14.50
2023-01-18T04:18:14.407Z,14.68
2023-01-18T04:21:02.637Z,14.18
2023-01-18T04:23:50.838Z,16.23
2023-01-18T04:26:39.142Z,14.05
2023-01-18T04:29:29.036Z,17.27
2023-01-18T04:32:17.174Z,13.52
2023-01-18T04:35:06.182Z,18.50
2023-01-18T04:37:54.547Z,18.08
2023-01-18T04:40:43.003Z,17.52
2023-01-18T04:43:31.260Z,17.60
2023-01-18T04:46:20.776Z,15.45
2023-01-18T04:49:13.545Z,18.33
2023-01-18T04:52:01.731Z,18.00
2023-01-18T04:54:49.903Z,14.07
2023-01-18T04:57:38.059Z,19.75
2023-01-18T05:00:26.384Z,15.68
2023-01-18T05:03:16.197Z,16.20
2023-01-18T05:06:04.671Z,22.27
2023-01-18T05:08:53.906Z,15.38
2023-01-18T05:11:42.605Z,16.20
2023-01-18T05:14:30.774Z,17.85
2023-01-18T05:17:18.925Z,18.52
2023-01-18T05:20:11.316Z,18.00
2023-01-18T05:22:59.909Z,16.50
2023-01-18T05:25:53.583Z,15.45
2023-01-18T05:28:42.450Z,16.25
2023-01-18T05:31:30.646Z,15.82
2023-01-18T05:34:18.877Z,15.23
2023-01-18T05:37:08.369Z,20.15
2023-01-18T05:39:56.546Z,15.02
2023-01-18T05:42:45.461Z,14.23
2023-01-18T05:45:33.687Z,21.77
2023-01-18T05:48:22.345Z,16.48
2023-01-18T05:51:12.113Z,15.85
2023-01-18T05:54:01.627Z,14.98
2023-01-18T05:56:49.819Z,19.00
2023-01-18T05:59:37.957Z,19.65
2023-01-18T06:02:26.466Z,19.50
2023-01-18T06:05:15.794Z,15.77
2023-01-18T06:08:03.959Z,17.27
2023-01-18T06:10:58.541Z,15.45
2023-01-18T06:13:46.816Z,14.82
2023-01-18T06:16:35.077Z,15.05
2023-01-18T06:19:23.298Z,15.90
2023-01-18T06:22:11.456Z,13.70
2023-01-18T06:25:00.220Z,14.10
2023-01-18T06:27:49.947Z,13.70
2023-01-18T06:30:38.269Z,15.45
2023-01-18T06:33:29.413Z,19.15
2023-01-18T06:36:23.110Z,17.20
2023-01-18T06:39:11.255Z,14.48
2023-01-18T06:41:59.423Z,16.10
2023-01-18T06:44:48.910Z,13.88
2023-01-18T06:47:37.093Z,13.27
2023-01-18T06:50:25.837Z,15.60
2023-01-18T06:53:13.999Z,14.27
2023-01-18T06:56:02.803Z,17.85
2023-01-18T06:58:52.014Z,12.73
2023-01-18T07:01:41.719Z,17.25
2023-01-18T07:04:30.097Z,14.13
2023-01-18T07:07:18.288Z,16.52
2023-01-18T07:10:07.271Z,18.38
2023-01-18T07:13:00.018Z,18.25
2023-01-18T07:15:54.100Z,17.73
2023-01-18T07:18:44.693Z,19.00
2023-01-18T07:21:33.129Z,13.07
2023-01-18T07:24:21.575Z,14.02
2023-01-18T07:27:09.742Z,19.00
2023-01-18T07:29:57.925Z,20.02
2023-01-18T07:32:50.317Z,16.77
2023-01-18T07:35:39.829Z,18.40
2023-01-18T07:38:28.684Z,21.90
2023-01-18T07:41:18.208Z,17.15
2023-01-18T07:44:06.984Z,19.25
2023-01-18T07:46:55.159Z,18.67
2023-01-18T07:49:43.301Z,18.98
2023-01-18T07:52:32.803Z,20.23
2023-01-18T07:55:21.884Z,18.35
2023-01-18T07:58:10.577Z,17.77
2023-01-18T08:01:03.607Z,15.98
2023-01-18T08:03:54.537Z,18.20
2023-01-18T08:06:43.043Z,19.60
2023-01-18T08:09:33.999Z,18.98
2023-01-18T08:12:22.812Z,23.25
2023-01-18T08:15:11.873Z,19.08
2023-01-18T08:18:02.817Z,21.83
2023-01-18T08:20:52.742Z,23.10
2023-01-18T08:23:42.803Z,19.58
2023-01-18T08:26:34.537Z,19.10
2023-01-18T08:29:22.711Z,17.77
2023-01-18T08:32:10.876Z,16.90
2023-01-18T08:35:00.478Z,14.48
2023-01-18T08:37:48.882Z,18.67
2023-01-18T08:40:37.057Z,32.10
2023-01-18T08:43:26.613Z,22.67
2023-01-18T08:46:15.591Z,26.55
2023-01-18T08:49:05.756Z,43.88
2023-01-18T08:51:53.920Z,68.75
2023-01-18T08:54:42.139Z,30.05
2023-01-18T08:57:30.295Z,24.75
2023-01-18T09:00:23.880Z,18.42
2023-01-18T09:03:13.244Z,23.67
2023-01-18T09:06:01.950Z,21.92
2023-01-18T09:08:50.420Z,23.00
2023-01-18T09:11:38.618Z,19.45
2023-01-18T09:14:26.834Z,25.95
2023-01-18T09:17:18.178Z,30.48
2023-01-18T09:20:09.728Z,36.90
2023-01-18T09:22:58.279Z,32.10
2023-01-18T09:25:46.623Z,27.45
2023-01-18T09:28:34.863Z,30.50
2023-01-18T09:31:25.063Z,36.22
2023-01-18T09:34:19.642Z,44.22
2023-01-18T09:37:08.180Z,37.00
2023-01-18T09:39:56.420Z,32.05
2023-01-18T09:42:45.231Z,40.58
2023-01-18T09:45:35.231Z,36.95
2023-01-18T09:48:32.337Z,33.30
2023-01-18T09:51:25.440Z,24.35
2023-01-18T09:54:30.410Z,32.33
2023-01-18T09:57:32.724Z,18.88
2023-01-18T10:00:23.625Z,18.75
2023-01-18T10:03:15.577Z,15.13
2023-01-18T10:06:10.457Z,17.75
2023-01-18T10:09:04.326Z,20.45
2023-01-18T10:11:59.656Z,19.40
2023-01-18T10:14:51.657Z,20.92
2023-01-18T10:17:42.184Z,14.73
2023-01-18T10:20:40.033Z,13.43
2023-01-18T10:23:33.154Z,13.93
2023-01-18T10:26:30.952Z,13.80
2023-01-18T10:29:32.500Z,17.77
2023-01-18T10:32:24.281Z,21.42
2023-01-18T10:35:19.530Z,20.77
2023-01-18T10:38:13.049Z,18.75
2023-01-18T10:41:03.001Z,21.00
2023-01-18T10:43:53.419Z,17.60
2023-01-18T10:46:41.603Z,16.35
2023-01-18T10:49:40.655Z,17.70
2023-01-18T10:52:31.446Z,15.70
2023-01-18T10:55:22.246Z,16.33
2023-01-18T10:58:15.439Z,15.73
2023-01-18T11:01:05.819Z,19.30
2023-01-18T11:03:56.809Z,19.90
2023-01-18T11:06:47.472Z,17.88
2023-01-18T11:09:42.811Z,19.98
2023-01-18T11:12:37.236Z,21.02
2023-01-18T11:15:30.185Z,22.00
2023-01-18T11:18:19.714Z,15.07
2023-01-18T11:21:11.407Z,17.05
2023-01-18T11:24:06.854Z,16.40
2023-01-18T11:26:59.069Z,14.63
2023-01-18T11:29:47.633Z,14.98
2023-01-18T11:32:35.863Z,14.43
2023-01-18T11:35:31.764Z,17.05
2023-01-18T11:38:20.718Z,16.05
2023-01-18T11:41:16.184Z,16.10
2023-01-18T11:44:13.537Z,19.40
2023-01-18T11:47:06.387Z,11.98
2023-01-18T11:50:05.590Z,21.17
2023-01-18T11:53:10.790Z,17.92
2023-01-18T11:56:06.424Z,15.90
2023-01-18T11:58:55.610Z,16.42
2023-01-18T12:02:06.719Z,14.90
2023-01-18T12:05:16.542Z,14.25
2023-01-18T12:08:38.207Z,15.15
2023-01-18T12:11:38.502Z,12.35
2023-01-18T12:14:41.996Z,16.33
2023-01-18T12:17:46.941Z,15.63
2023-01-18T12:20:41.636Z,16.00
2023-01-18T12:23:47.874Z,13.32
2023-01-18T12:26:49.378Z,16.00
2023-01-18T12:30:12.259Z,16.05
2023-01-18T12:33:17.891Z,14.25
2023-01-18T12:36:17.867Z,26.95
2023-01-18T12:39:16.748Z,15.52
2023-01-18T12:42:06.724Z,13.80
2023-01-18T12:45:06.125Z,20.85
2023-01-18T12:48:07.834Z,16.70
2023-01-18T12:50:57.185Z,16.70
2023-01-18T12:53:50.035Z,16.75
2023-01-18T12:56:43.145Z,17.50
2023-01-18T12:59:36.871Z,15.63
2023-01-18T13:02:33.170Z,20.42
2023-01-18T13:05:34.896Z,18.98
2023-01-18T13:08:30.603Z,15.40
2023-01-18T13:11:23.014Z,17.05
2023-01-18T13:14:21.993Z,17.90
2023-01-18T13:17:17.013Z,16.92
2023-01-18T13:20:09.591Z,15.77
2023-01-18T13:23:08.835Z,16.50
2023-01-18T13:26:08.579Z,16.02
2023-01-18T13:29:17.850Z,17.50
2023-01-18T13:32:25.076Z,12.75
2023-01-18T13:35:21.304Z,16.33
2023-01-18T13:38:14.199Z,17.50
2023-01-18T13:41:04.847Z,16.90
2023-01-18T13:44:04.246Z,15.05
2023-01-18T13:46:58.347Z,11.85
2023-01-18T13:49:47.348Z,13.90
2023-01-18T13:52:38.251Z,9.00
2023-01-18T13:55:31.218Z,11.32
2023-01-18T13:58:21.501Z,11.57
2023-01-18T14:01:23.216Z,12.47
2023-01-18T14:04:29.301Z,8.52
2023-01-18T14:07:23.147Z,12.18
2023-01-18T14:10:30.443Z,11.27
2023-01-18T14:13:39.321Z,13.43
2023-01-18T14:16:30.520Z,11.40
2023-01-18T14:19:22.164Z,11.93
2023-01-18T14:22:21.278Z,11.88
2023-01-18T14:25:30.349Z,11.50
2023-01-18T14:28:24.398Z,14.48
2023-01-18T14:31:17.590Z,13.60
2023-01-18T14:34:36.019Z,14.27
2023-01-18T14:37:29.140Z,14.35
2023-01-18T14:40:21.690Z,14.25
2023-01-18T14:43:16.597Z,12.95
2023-01-18T14:46:08.314Z,17.15
2023-01-18T14:48:58.927Z,12.70
2023-01-18T14:51:50.825Z,16.70
2023-01-18T14:54:39.188Z,12.40
2023-01-18T14:57:27.362Z,12.23
2023-01-18T15:00:18.276Z,16.20
2023-01-18T15:03:13.789Z,14.52
2023-01-18T15:06:09.428Z,14.07
2023-01-18T15:08:59.415Z,16.30
2023-01-18T15:11:48.879Z,12.45
2023-01-18T15:14:43.005Z,13.10
2023-01-18T15:17:32.928Z,13.90
2023-01-18T15:20:21.210Z,11.98
2023-01-18T15:23:09.413Z,14.60
2023-01-18T15:25:59.501Z,13.70
2023-01-18T15:28:47.811Z,16.77
2023-01-18T15:31:37.020Z,16.25
2023-01-18T15:34:29.877Z,19.67
2023-01-18T15:37:23.581Z,19.33
2023-01-18T15:40:32.784Z,21.08
2023-01-18T15:43:30.422Z,17.05
2023-01-18T15:46:19.200Z,13.35
2023-01-18T15:49:13.217Z,20.48
2023-01-18T15:52:03.011Z,15.52
2023-01-18T15:54:51.441Z,21.20
2023-01-18T15:57:39.901Z,19.80
2023-01-18T16:00:38.809Z,18.67
2023-01-18T16:03:29.613Z,18.88
2023-01-18T16:06:19.928Z,21.08
2023-01-18T16:09:21.097Z,22.53
2023-01-18T16:12:09.284Z,18.17
2023-01-18T16:14:57.587Z,15.23
2023-01-18T16:17:47.175Z,18.23
2023-01-18T16:20:36.364Z,20.63
2023-01-18T16:23:25.489Z,17.10
2023-01-18T16:26:15.184Z,19.20
2023-01-18T16:29:08.742Z,19.92
2023-01-18T16:32:19.152Z,17.55
2023-01-18T16:35:16.031Z,19.42
2023-01-18T16:38:04.672Z,14.07
2023-01-18T16:40:52.963Z,15.30
2023-01-18T16:43:43.108Z,17.90
2023-01-18T16:46:32.798Z,16.50
2023-01-18T16:49:21.000Z,16.55
2023-01-18T16:52:12.683Z,19.85
2023-01-18T16:55:00.934Z,16.67
2023-01-18T16:57:51.545Z,14.43
2023-01-18T17:00:49.964Z,15.25
2023-01-18T17:03:39.623Z,15.05
2023-01-18T17:06:29.385Z,19.38
2023-01-18T17:09:24.080Z,22.40
2023-01-18T17:12:12.392Z,21.10
2023-01-18T17:15:00.638Z,20.23
2023-01-18T17:17:49.929Z,24.02
2023-01-18T17:20:38.271Z,14.32
2023-01-18T17:23:26.602Z,22.40
2023-01-18T17:26:16.676Z,17.85
2023-01-18T17:29:05.813Z,17.95
2023-01-18T17:31:53.955Z,17.73
2023-01-18T17:34:42.123Z,20.95
2023-01-18T17:37:30.291Z,16.35
2023-01-18T17:40:27.536Z,20.02
2023-01-18T17:43:33.332Z,17.25
2023-01-18T17:46:22.384Z,15.32
2023-01-18T17:49:10.598Z,16.90
2023-01-18T17:51:58.829Z,17.33
2023-01-18T17:54:47.021Z,18.98
2023-01-18T17:57:35.730Z,18.02
2023-01-18T18:00:25.581Z,15.65
2023-01-18T18:03:14.168Z,17.25
2023-01-18T18:06:02.382Z,16.65
2023-01-18T18:08:50.542Z,18.08
2023-01-18T18:11:38.725Z,15.70
2023-01-18T18:14:27.241Z,15.98
2023-01-18T18:17:16.775Z,18.42
2023-01-18T18:20:06.176Z,15.68
2023-01-18T18:22:54.356Z,21.55
2023-01-18T18:25:45.983Z,19.85
2023-01-18T18:28:34.658Z,19.25
2023-01-18T18:31:22.894Z,16.73
2023-01-18T18:34:12.864Z,19.73
2023-01-18T18:37:01.171Z,25.52
2023-01-18T18:39:49.409Z,39.67
2023-01-18T18:42:37.593Z,20.08
2023-01-18T18:45:25.898Z,18.15
2023-01-18T18:48:14.381Z,41.55
2023-01-18T18:51:03.921Z,30.27
2023-01-18T18:53:52.716Z,17.60
2023-01-18T18:56:41.499Z,20.10
2023-01-18T18:59:29.913Z,14.90
2023-01-18T19:02:18.161Z,20.80
2023-01-18T19:05:07.014Z,21.13
2023-01-18T19:07:56.758Z,15.63
2023-01-18T19:10:45.305Z,15.80
2023-01-18T19:13:33.621Z,16.55
2023-01-18T19:16:21.807Z,17.30
2023-01-18T19:19:10.230Z,14.70
2023-01-18T19:21:58.400Z,16.65
2023-01-18T19:24:47.916Z,19.45
2023-01-18T19:27:36.094Z,18.35
2023-01-18T19:30:24.687Z,21.35
2023-01-18T19:33:14.268Z,18.25
2023-01-18T19:36:08.644Z,15.77
2023-01-18T19:39:00.165Z,18.95
2023-01-18T19:41:50.078Z,18.15
2023-01-18T19:44:38.230Z,20.42
2023-01-18T19:47:26.443Z,24.13
2023-01-18T19:50:14.637Z,19.85
2023-01-18T19:53:03.550Z,20.90
2023-01-18T19:56:06.480Z,16.65
2023-01-18T19:58:57.027Z,16.17
2023-01-18T20:01:45.731Z,16.38
2023-01-18T20:04:34.251Z,17.88
2023-01-18T20:07:22.419Z,21.38
2023-01-18T20:10:11.803Z,16.17
2023-01-18T20:13:00.200Z,18.90
2023-01-18T20:15:53.968Z,18.20
2023-01-18T20:18:42.225Z,19.95
2023-01-18T20:21:30.453Z,25.42
2023-01-18T20:24:18.928Z,22.10
2023-01-18T20:27:15.926Z,19.27
2023-01-18T20:30:06.003Z,21.73
2023-01-18T20:32:55.591Z,20.35
2023-01-18T20:35:43.967Z,15.68
2023-01-18T20:38:33.785Z,22.55
2023-01-18T20:41:22.169Z,16.60
2023-01-18T20:44:10.750Z,17.83
2023-01-18T20:46:59.013Z,16.67
2023-01-18T20:49:48.984Z,15.05
2023-01-18T20:52:37.140Z,15.20
2023-01-18T20:55:25.310Z,18.70
2023-01-18T20:58:13.494Z,16.98
2023-01-18T21:01:06.142Z,18.15
2023-01-18T21:03:56.069Z,15.50
2023-01-18T21:06:46.539Z,18.00
2023-01-18T21:09:34.764Z,18.25
2023-01-18T21:12:22.969Z,22.92
2023-01-18T21:15:12.040Z,15.20
2023-01-18T21:18:03.105Z,16.05
2023-01-18T21:20:53.472Z,18.88
2023-01-18T21:23:43.023Z,16.60
2023-01-18T21:26:31.235Z,17.80
2023-01-18T21:29:19.763Z,19.30
2023-01-18T21:32:08.013Z,16.60
2023-01-18T21:34:56.217Z,17.38
2023-01-18T21:37:44.369Z,17.88
2023-01-18T21:40:33.862Z,17.52
2023-01-18T21:43:40.689Z,21.05
2023-01-18T21:46:28.849Z,19.20
2023-01-18T21:49:52.147Z,18.02
2023-01-18T21:53:00.331Z,15.52
2023-01-18T21:55:52.113Z,16.98
2023-01-18T21:58:56.078Z,15.88
2023-01-18T22:01:47.001Z,20.15
2023-01-18T22:04:52.929Z,12.75
2023-01-18T22:07:41.100Z,15.52
2023-01-18T22:10:29.299Z,14.90
2023-01-18T22:13:18.845Z,18.70
2023-01-18T22:16:07.947Z,14.45
2023-01-18T22:18:56.113Z,23.38
2023-01-18T22:21:44.255Z,15.35
2023-01-18T22:24:32.393Z,17.50
2023-01-18T22:27:20.673Z,17.48
2023-01-18T22:30:12.335Z,17.90
2023-01-18T22:33:00.639Z,20.13
2023-01-18T22:35:48.779Z,14.82
2023-01-18T22:38:37.907Z,15.88
2023-01-18T22:41:28.458Z,16.95
2023-01-18T22:44:18.001Z,16.00
2023-01-18T22:47:07.730Z,19.20
2023-01-18T22:49:55.887Z,15.48
2023-01-18T22:52:44.108Z,15.73
2023-01-18T22:55:34.287Z,15.40
2023-01-18T22:58:22.549Z,15.13
2023-01-18T23:01:16.876Z,12.18
2023-01-18T23:04:06.728Z,12.77
2023-01-18T23:06:57.851Z,10.88
2023-01-18T23:09:46.025Z,17.73
2023-01-18T23:12:34.215Z,14.80
2023-01-18T23:15:39.994Z,14.82
2023-01-18T23:18:28.728Z,17.58
2023-01-18T23:21:18.344Z,16.13
2023-01-18T23:24:06.867Z,13.40
2023-01-18T23:26:55.051Z,16.85
2023-01-18T23:29:43.235Z,13.85
2023-01-18T23:32:31.571Z,16.30
2023-01-18T23:35:19.735Z,14.75
2023-01-18T23:38:09.240Z,14.50
2023-01-18T23:41:14.884Z,13.30
2023-01-18T23:44:20.620Z,12.07
2023-01-18T23:47:26.648Z,16.02
2023-01-18T23:50:32.421Z,15.07
2023-01-18T23:53:39.744Z,13.18
2023-01-18T23:56:28.794Z,16.15
2023-01-18T23:59:17.060Z,12.82
